Tropical Cyclones
[Index]
Main Index Home Page Stock Weather Photos Extreme Storms Discussion Storm News and Storm Chasing Reports Tropical Cyclones / Hurricanes / Typhoons Weather Data and Links Wild Fires / Bushfires Weather Observation Techniques Weather Picture Catalogue Tornado Pictures and Reports Stock Video Footage and DVDs for sale
Season 2004-2005 Tropical Cyclone ADELINE-JULIET Track Map
Season 2004-2005 Summaries (Operational Data): [AU] [SIO] [SPAC] [SH]
<<- Previous TC | 2004-2005 Season | Next TC ->>

click for intensity scale information  Lat/long Grid: Show Hide

 Date Labels: Show Hide

Operational Tropical Cyclone Data : JTWC Advisories

Name: ADELINE-JULIET
Number: 0526

01 Apr 2005 04:00 UTC to 14 Apr 2005 12:00 UTC

    date/time    lat    long     hPa   cat  kts
2005-04-01 04   10.0   103.0    1004         25          
2005-04-01 22   10.0   103.0    1002         30          
2005-04-02 16    9.8   100.3    1000         30          
2005-04-02 22   10.7    99.6     998         30          
2005-04-03 04   11.8    98.7     998         30          
2005-04-03 10   12.3    97.9     994    1    35          
2005-04-03 16   12.8    97.2     992    1    35          
2005-04-03 22   13.3    96.4     990    1    40          
2005-04-04 04   13.4    95.3     990    1    45          
2005-04-04 10   13.8    93.8     985    2    55          
2005-04-04 16   13.8    93.3     985    2    55          
2005-04-04 22   13.4    92.2     980    2    60          
2005-04-04 23   13.4    92.2     970    3    65          
2005-04-05 04   13.4    91.2     965    3    70          
2005-04-05 10   13.4    90.2     960    3    75          
2005-04-05 12   13.1    90.2     960    3    75          
2005-04-05 18   12.9    89.3     960    3    75          
2005-04-06 00   12.9    88.4     945    3    85          
2005-04-06 06   13.1    87.6     928    4   105          
2005-04-06 12   13.4    86.4     930    4   105          
2005-04-06 18   13.7    85.3     930    4   105          
2005-04-07 00   14.3    83.9     930    4   105          
2005-04-07 06   14.5    82.4     940    4    90          
2005-04-07 12   14.6    81.0     945    3    85          
2005-04-07 18   15.0    80.3     955    3    80          
2005-04-08 00   15.1    78.4     950    3    80          
2005-04-08 06   15.1    76.6     950    3    80          
2005-04-08 12   16.0    75.1     950    3    80          
2005-04-08 18   16.5    73.2     945    3    85          
2005-04-09 00   16.7    71.6     935    4    95          
2005-04-09 06   17.3    69.9     915    5   110          
2005-04-09 12   17.8    68.6     915    5   110          
2005-04-09 18   18.4    67.2     910    5   115          
2005-04-10 00   19.0    66.0     905    5   120          
2005-04-10 06   19.8    65.0     910    5   115          
2005-04-10 12   20.7    64.3     915    5   110          
2005-04-10 18   21.5    63.8     923    4   105          
2005-04-11 00   22.3    63.5     925    4   105          
2005-04-11 06   23.2    63.5     935    4    90          
2005-04-11 12   24.2    63.4     955    3    75          
2005-04-11 18   25.2    64.4     968    3    65          
2005-04-12 00   26.4    64.8     978    2    60          
2005-04-12 06   27.3    65.8     980    2    60          
2005-04-12 12   28.0    67.8     982    2    60          
2005-04-12 18   28.0    69.6     985    2    55          
2005-04-13 00   28.4    70.8     988    1    45          
2005-04-13 06   28.4    72.2     992    1    45          
2005-04-13 12   28.8    74.5     994    1    45          
2005-04-13 18   29.2    75.7     996    1    40          
2005-04-14 00   29.3    76.9    1000    1    35          
2005-04-14 06   29.3    77.3    1004         30          
2005-04-14 12   28.5    78.1    1005         25          
Winds are 10-min average.

Tropical cyclone tracks developed by Michael Bath using operational warnings and advisories and Google Maps.


[Australian Severe Weather index] [Copyright Notice] [Email Contacts] [Search This Site] [Privacy Policy]
Document: tropical_cyclone_adeline-juliet.htm Updated: 2 May 2017